Time;durP1;ratioP1;P1;durP2;ratioP2;P2;SDS_P1;SDS_P2;PMS_P1;PMS_P2;Temp;Humidity;BMP_temperature;BMP_pressure;BME280_temperature;BME280_humidity;BME280_pressure;Samples;Min_cycle;Max_cycle;Signal;HPM_P1;HPM_P2
2021/01/30 00:00:27;;;;;;;8.57;3.70;;;;;;;7.88;79.08;99370.28;4410453;32;20042;-77
2021/01/30 00:02:53;;;;;;;7.47;3.80;;;;;;;7.88;78.94;99367.47;4412086;32;20436;-76
2021/01/30 00:05:19;;;;;;;10.05;3.50;;;;;;;7.83;79.07;99365.25;4405920;32;20077;-76
2021/01/30 00:07:45;;;;;;;8.88;3.75;;;;;;;7.88;79.16;99359.06;4414379;32;20064;-77
2021/01/30 00:10:13;;;;;;;10.25;3.70;;;;;;;7.98;79.41;99363.50;4415566;32;20086;-76
2021/01/30 00:12:39;;;;;;;9.60;3.22;;;;;;;8.07;78.38;99365.59;4414686;32;20038;-76
2021/01/30 00:15:05;;;;;;;8.43;2.58;;;;;;;8.01;77.60;99368.22;4415857;32;20109;-77
2021/01/30 00:17:31;;;;;;;7.65;2.17;;;;;;;7.98;76.79;99351.53;4410343;32;20063;-77
2021/01/30 00:19:57;;;;;;;6.18;2.10;;;;;;;7.75;75.29;99357.56;4414665;32;20110;-76
2021/01/30 00:22:25;;;;;;;9.82;2.33;;;;;;;7.61;75.29;99358.81;4407523;32;21288;-76
2021/01/30 00:24:51;;;;;;;5.62;1.90;;;;;;;7.77;75.96;99346.69;4414168;32;20026;-76
2021/01/30 00:27:21;;;;;;;9.20;1.48;;;;;;;7.56;75.41;99350.22;4417105;32;20045;-76
2021/01/30 00:29:48;;;;;;;8.20;2.17;;;;;;;7.52;75.43;99338.37;4408241;32;20114;-76
2021/01/30 00:32:17;;;;;;;11.57;2.30;;;;;;;7.39;76.03;99335.59;4411562;32;20075;-77
2021/01/30 00:34:44;;;;;;;11.45;1.80;;;;;;;7.30;75.81;99335.50;4412834;32;20046;-77
2021/01/30 00:37:15;;;;;;;12.37;2.12;;;;;;;7.33;75.95;99325.44;4416151;32;20091;-77
2021/01/30 00:39:41;;;;;;;8.57;2.12;;;;;;;7.35;75.43;99329.34;4413071;32;20022;-77
2021/01/30 00:42:08;;;;;;;10.07;1.95;;;;;;;7.42;76.40;99325.50;4413076;32;20096;-77
2021/01/30 00:44:34;;;;;;;7.85;2.55;;;;;;;7.44;75.96;99318.25;4412769;32;20313;-76
2021/01/30 00:47:00;;;;;;;7.57;2.00;;;;;;;7.55;76.22;99310.25;4407439;32;20026;-77
2021/01/30 00:49:26;;;;;;;11.88;2.85;;;;;;;7.55;75.83;99313.03;4408143;32;20064;-77
2021/01/30 00:51:52;;;;;;;4.87;2.12;;;;;;;7.47;75.50;99319.34;4411968;32;20093;-76
2021/01/30 00:54:19;;;;;;;11.63;2.17;;;;;;;7.59;76.09;99318.53;4409449;32;20038;-77
2021/01/30 00:56:49;;;;;;;10.95;2.40;;;;;;;7.70;75.91;99316.91;4409283;32;20536;-77
2021/01/30 00:59:15;;;;;;;11.65;3.08;;;;;;;7.78;75.65;99323.84;4408375;32;20053;-77
2021/01/30 01:01:41;;;;;;;11.70;3.08;;;;;;;7.65;75.20;99319.50;4408954;32;20046;-77
2021/01/30 01:04:07;;;;;;;8.80;2.65;;;;;;;7.78;75.38;99323.84;4414202;32;20093;-77
2021/01/30 01:06:33;;;;;;;11.55;3.37;;;;;;;7.75;75.43;99312.75;4414823;32;20033;-77
2021/01/30 01:09:01;;;;;;;11.85;2.80;;;;;;;7.75;75.29;99304.34;4412399;32;20046;-77
2021/01/30 01:11:26;;;;;;;17.23;3.62;;;;;;;7.72;75.23;99308.06;4411423;32;20087;-77
2021/01/30 01:13:52;;;;;;;14.60;3.15;;;;;;;7.59;74.90;99298.94;4415185;32;20050;-77
2021/01/30 01:16:19;;;;;;;18.95;3.33;;;;;;;7.57;75.28;99302.19;4414763;32;20076;-77
2021/01/30 01:18:45;;;;;;;11.20;3.30;;;;;;;7.61;75.71;99293.66;4409996;32;20038;-77
2021/01/30 01:21:11;;;;;;;16.37;2.72;;;;;;;7.51;75.46;99300.41;4417048;32;20030;-77
2021/01/30 01:23:39;;;;;;;8.05;2.10;;;;;;;7.60;75.59;99303.28;4409078;32;20038;-77
2021/01/30 01:26:05;;;;;;;8.75;2.67;;;;;;;7.40;74.55;99300.75;4414853;32;20089;-77
2021/01/30 01:28:30;;;;;;;12.77;2.70;;;;;;;7.55;75.37;99306.69;4412392;32;20046;-77
2021/01/30 01:30:56;;;;;;;11.43;2.50;;;;;;;7.48;74.67;99304.09;4416057;32;20374;-77
2021/01/30 01:33:22;;;;;;;9.52;2.42;;;;;;;7.47;74.35;99311.75;4409898;32;20031;-78
2021/01/30 01:35:47;;;;;;;4.95;1.25;;;;;;;7.45;74.33;99317.00;4410941;32;20034;-77
2021/01/30 01:38:13;;;;;;;7.43;1.58;;;;;;;7.30;73.72;99315.91;4413668;32;20397;-77
2021/01/30 01:40:40;;;;;;;11.30;1.37;;;;;;;7.37;73.76;99307.25;4414030;32;20122;-77
2021/01/30 01:45:42;;;;;;;11.25;1.37;;;;;;;7.57;72.47;99307.00;3987328;32;15133069;-77
2021/01/30 01:48:23;;;;;;;7.57;1.00;;;;;;;7.57;72.47;99307.00;4444216;32;20048;-76
2021/01/30 01:50:51;;;;;;;5.50;1.02;;;;;;;7.15;73.07;99297.25;4439455;32;20033;-76
2021/01/30 01:53:20;;;;;;;6.45;1.45;;;;;;;7.12;73.19;99286.97;4443623;32;20037;-77
2021/01/30 01:55:53;;;;;;;7.07;0.90;;;;;;;7.05;73.48;99289.97;4436634;32;20052;-77
2021/01/30 01:58:21;;;;;;;5.60;1.00;;;;;;;7.06;73.51;99281.12;4445577;32;20053;-77
2021/01/30 02:00:48;;;;;;;17.17;3.35;;;;;;;7.08;73.92;99270.28;4445051;32;20049;-77
2021/01/30 02:03:16;;;;;;;8.57;2.37;;;;;;;7.12;73.81;99270.19;4440220;32;20013;-77
2021/01/30 02:05:42;;;;;;;11.85;0.82;;;;;;;7.14;73.44;99279.69;4444110;32;20092;-77
2021/01/30 02:08:11;;;;;;;5.45;0.90;;;;;;;6.99;73.17;99273.00;4442518;32;20037;-77
2021/01/30 02:10:40;;;;;;;5.55;0.90;;;;;;;7.03;73.50;99275.69;4440192;32;20073;-76
2021/01/30 02:13:12;;;;;;;5.65;0.85;;;;;;;7.02;73.70;99274.09;4442502;32;20124;-77
2021/01/30 02:15:39;;;;;;;6.00;0.93;;;;;;;7.05;73.97;99273.19;4446799;32;20038;-77
2021/01/30 02:24:18;;;;;;;11.23;1.40;;;;;;;7.57;73.15;99282.59;4002835;31;15013979;-77
2021/01/30 02:30:23;;;;;;;5.47;1.20;;;;;;;7.14;74.03;99274.09;3987295;32;15022954;-77
2021/01/30 02:38:22;;;;;;;7.40;1.35;;;;;;;6.79;73.37;99266.09;4003215;31;15020777;-78
2021/01/30 02:40:54;;;;;;;8.38;1.33;;;;;;;6.75;74.54;99255.00;4465157;32;20037;-77
2021/01/30 02:43:25;;;;;;;6.25;1.45;;;;;;;6.49;74.80;99263.84;4469713;32;20044;-77
2021/01/30 02:46:06;;;;;;;9.80;1.20;;;;;;;6.73;75.05;99262.28;4470292;32;20480;-77
2021/01/30 02:48:44;;;;;;;6.85;1.30;;;;;;;6.67;74.58;99264.06;4464197;32;20071;-77
2021/01/30 02:51:17;;;;;;;8.65;1.00;;;;;;;6.74;74.72;99258.25;4461951;32;20073;-77
2021/01/30 02:53:50;;;;;;;7.78;1.10;;;;;;;6.63;74.40;99257.81;4471701;32;20025;-78
2021/01/30 02:56:15;;;;;;;7.40;1.27;;;;;;;6.81;74.53;99255.25;4454119;32;20207;-77
2021/01/30 02:58:47;;;;;;;8.90;1.25;;;;;;;6.67;74.31;99253.69;4470921;32;20434;-77
2021/01/30 03:01:13;;;;;;;8.57;1.40;;;;;;;6.67;74.35;99250.91;4465865;32;20037;-77
2021/01/30 03:03:40;;;;;;;9.43;1.25;;;;;;;6.54;74.78;99247.31;4455525;32;20439;-77
2021/01/30 03:06:15;;;;;;;8.63;1.40;;;;;;;6.62;74.63;99248.66;4462391;32;20409;-77
2021/01/30 03:08:50;;;;;;;10.82;1.00;;;;;;;6.82;74.50;99240.03;4468459;32;20076;-77
2021/01/30 03:11:25;;;;;;;5.10;0.68;;;;;;;6.78;73.68;99245.72;4453178;32;20633;-77
2021/01/30 03:14:05;;;;;;;10.95;1.48;;;;;;;6.79;74.56;99243.72;4470818;32;20088;-77
2021/01/30 03:16:36;;;;;;;6.87;0.95;;;;;;;6.78;74.06;99239.37;4468476;32;20123;-77
2021/01/30 03:19:24;;;;;;;6.93;0.80;;;;;;;6.82;74.97;99229.63;4447206;32;20077;-77
2021/01/30 03:21:56;;;;;;;5.15;0.93;;;;;;;6.84;74.16;99231.97;4469633;32;20084;-77
2021/01/30 03:24:23;;;;;;;7.70;1.15;;;;;;;6.83;74.29;99231.19;4468923;32;20149;-77
2021/01/30 03:26:49;;;;;;;8.30;1.15;;;;;;;6.75;74.42;99229.09;4466756;32;20068;-77
2021/01/30 03:29:18;;;;;;;9.38;1.17;;;;;;;6.79;74.00;99227.75;4465356;32;20036;-77
2021/01/30 03:31:44;;;;;;;9.48;1.02;;;;;;;6.77;73.60;99229.41;4468690;32;20049;-77
2021/01/30 03:34:10;;;;;;;4.50;0.70;;;;;;;6.75;73.95;99224.25;4468196;32;20047;-77
2021/01/30 03:36:36;;;;;;;5.25;0.90;;;;;;;6.76;73.65;99227.84;4469093;32;20088;-77
2021/01/30 03:39:06;;;;;;;7.05;0.93;;;;;;;6.75;73.70;99221.47;4453771;32;20070;-77
2021/01/30 03:41:31;;;;;;;10.07;1.05;;;;;;;6.86;73.27;99223.91;4463047;32;20124;-77
2021/01/30 03:43:57;;;;;;;12.43;0.90;;;;;;;6.80;73.14;99220.12;4468565;32;20036;-77
2021/01/30 03:46:24;;;;;;;9.27;1.05;;;;;;;6.83;72.81;99220.00;4465163;32;20049;-77
2021/01/30 03:48:49;;;;;;;9.00;1.60;;;;;;;6.63;73.00;99213.09;4462211;32;20064;-77
2021/01/30 03:51:15;;;;;;;10.30;1.25;;;;;;;6.71;72.98;99211.62;4457792;32;20075;-77
2021/01/30 03:53:41;;;;;;;5.00;0.90;;;;;;;6.71;73.21;99208.84;4460566;32;20542;-77
2021/01/30 03:56:06;;;;;;;8.48;0.85;;;;;;;6.77;72.86;99202.22;4457604;32;20102;-77
2021/01/30 03:58:32;;;;;;;4.40;0.90;;;;;;;6.65;73.47;99202.25;4455779;32;20037;-77
2021/01/30 04:00:57;;;;;;;7.32;1.00;;;;;;;6.71;73.44;99201.25;4441246;32;20081;-77
2021/01/30 04:03:23;;;;;;;7.72;1.00;;;;;;;6.69;73.44;99197.34;4455444;32;20120;-77
2021/01/30 04:05:49;;;;;;;8.10;0.82;;;;;;;6.65;73.06;99191.84;4446031;32;20414;-77
2021/01/30 04:08:14;;;;;;;5.32;0.82;;;;;;;6.71;73.30;99184.47;4458255;32;20097;-77
2021/01/30 04:10:40;;;;;;;4.93;1.00;;;;;;;6.74;73.10;99179.97;4458898;32;20025;-78
2021/01/30 04:13:10;;;;;;;4.72;0.90;;;;;;;6.81;72.62;99182.56;4453299;32;20045;-77
2021/01/30 04:15:39;;;;;;;7.15;1.02;;;;;;;6.77;71.94;99177.06;4455984;32;20033;-77
2021/01/30 04:18:05;;;;;;;7.65;1.17;;;;;;;6.74;72.15;99177.97;4461176;32;20044;-77
2021/01/30 04:20:31;;;;;;;8.15;0.93;;;;;;;6.70;72.86;99171.72;4461947;32;20069;-77
2021/01/30 04:22:56;;;;;;;9.02;1.12;;;;;;;6.59;73.24;99165.69;4461175;32;20037;-77
2021/01/30 04:25:24;;;;;;;3.72;0.70;;;;;;;6.60;73.23;99160.91;4456362;32;20403;-77
2021/01/30 04:27:51;;;;;;;9.88;1.20;;;;;;;6.61;72.65;99160.44;4457010;32;20031;-78
2021/01/30 04:30:19;;;;;;;5.78;0.65;;;;;;;6.58;72.59;99164.16;4457337;32;20471;-77
2021/01/30 04:32:45;;;;;;;2.97;0.70;;;;;;;6.63;72.52;99162.81;4457243;32;20069;-77
2021/01/30 04:35:12;;;;;;;8.05;1.45;;;;;;;6.61;72.54;99163.25;4455601;32;20060;-78
2021/01/30 04:37:38;;;;;;;5.03;1.00;;;;;;;6.82;71.63;99167.34;4454880;32;20120;-77
2021/01/30 04:40:08;;;;;;;9.75;0.98;;;;;;;6.66;71.61;99162.66;4458358;32;20109;-77
2021/01/30 04:42:45;;;;;;;4.97;1.10;;;;;;;6.66;71.49;99161.91;4452681;32;20053;-78
2021/01/30 04:45:22;;;;;;;3.75;0.90;;;;;;;6.76;71.90;99155.16;4453771;32;21272;-77
2021/01/30 04:48:01;;;;;;;7.00;1.20;;;;;;;6.67;71.66;99153.06;4439702;32;20052;-78
2021/01/30 04:50:37;;;;;;;5.07;1.12;;;;;;;6.68;71.94;99162.22;4454726;32;20100;-78
2021/01/30 04:56:18;;;;;;;7.32;1.05;;;;;;;6.98;71.69;99151.19;3960930;32;15722659;-78
2021/01/30 04:59:26;;;;;;;5.70;0.90;;;;;;;6.98;71.69;99151.19;4436628;32;20037;-78
2021/01/30 05:02:01;;;;;;;11.12;1.25;;;;;;;6.65;71.95;99151.94;4436036;32;20049;-78
2021/01/30 05:04:32;;;;;;;8.07;0.80;;;;;;;6.58;71.90;99152.97;4432583;32;20077;-78
2021/01/30 05:07:07;;;;;;;8.60;1.35;;;;;;;6.59;72.24;99140.56;4434527;32;20033;-78
2021/01/30 05:09:53;;;;;;;;;;;;;;;6.43;72.12;99137.09;4435742;32;20064;-78
2021/01/30 05:12:40;;;;;;;10.02;1.45;;;;;;;6.44;72.42;99136.66;4434780;32;19934;-78
2021/01/30 05:18:06;;;;;;;10.45;1.35;;;;;;;6.92;71.18;99149.41;3988497;32;15026533;-77
2021/01/30 05:20:36;;;;;;;2.35;0.80;;;;;;;6.92;71.18;99149.41;4445398;32;20052;-77
2021/01/30 05:23:05;;;;;;;8.70;0.80;;;;;;;6.46;71.99;99141.81;4446122;32;20090;-77
2021/01/30 05:25:31;;;;;;;13.88;0.98;;;;;;;6.47;71.66;99144.16;4445697;32;20089;-77
2021/01/30 05:33:34;;;;;;;5.97;0.80;;;;;;;6.91;70.58;99142.25;3985164;32;15023179;-77
2021/01/30 05:36:25;;;;;;;9.43;1.10;;;;;;;6.91;70.58;99142.25;4432458;32;20055;-77
2021/01/30 05:42:09;;;;;;;13.73;1.15;;;;;;;6.18;72.38;99117.59;3990685;32;15026180;-77
2021/01/30 05:47:17;;;;;;;5.75;0.88;;;;;;;6.58;71.74;99121.44;3989760;32;15025724;-77
2021/01/30 05:49:56;;;;;;;5.32;0.90;;;;;;;6.58;71.74;99121.44;4444741;32;21037;-78
2021/01/30 05:52:28;;;;;;;9.80;0.90;;;;;;;6.17;72.59;99116.81;4443365;32;20044;-78
2021/01/30 05:54:53;;;;;;;9.15;0.95;;;;;;;6.18;72.57;99112.78;4441228;32;20045;-77
2021/01/30 05:57:19;;;;;;;5.90;0.60;;;;;;;6.20;72.88;99115.13;4444563;32;20457;-78
2021/01/30 05:59:50;;;;;;;8.65;1.20;;;;;;;6.24;73.16;99118.59;4445113;32;20384;-78
2021/01/30 06:02:19;;;;;;;6.80;1.08;;;;;;;6.27;72.98;99114.91;4444859;32;20444;-78
2021/01/30 06:04:45;;;;;;;9.68;1.67;;;;;;;6.16;72.60;99114.47;4440123;32;20042;-78
2021/01/30 06:09:53;;;;;;;8.48;1.30;;;;;;;6.24;73.35;99118.59;3984500;32;15023272;-78
2021/01/30 06:12:29;;;;;;;5.32;0.80;;;;;;;6.06;73.18;99113.56;4445779;32;20069;-77
2021/01/30 06:15:07;;;;;;;7.97;1.00;;;;;;;6.25;73.10;99106.16;4446403;32;20045;-77
2021/01/30 06:17:34;;;;;;;8.57;0.80;;;;;;;6.19;72.20;99114.34;4442221;32;20053;-77
2021/01/30 06:22:40;;;;;;;10.15;0.90;;;;;;;6.40;71.90;99105.28;3986623;32;15024548;-76
2021/01/30 06:25:24;;;;;;;6.07;0.75;;;;;;;6.35;72.10;99111.41;4447362;32;20055;-76
2021/01/30 06:27:54;;;;;;;9.00;0.85;;;;;;;6.52;71.71;99103.69;4443339;32;20047;-77
2021/01/30 06:30:33;;;;;;;13.13;1.23;;;;;;;6.52;71.09;99110.06;4439995;32;20053;-77
2021/01/30 06:33:03;;;;;;;3.80;0.80;;;;;;;6.43;71.37;99112.75;4440761;32;20030;-76
2021/01/30 06:35:38;;;;;;;11.10;0.95;;;;;;;6.36;71.27;99107.41;4428737;32;20056;-77
2021/01/30 06:38:12;;;;;;;7.72;0.88;;;;;;;6.44;71.16;99114.31;4430067;32;20095;-76
2021/01/30 06:40:51;;;;;;;1.80;0.80;;;;;;;6.23;71.85;99100.28;4428755;32;20104;-77
2021/01/30 06:43:27;;;;;;;5.87;0.80;;;;;;;6.28;71.38;99102.47;4427739;32;20099;-77
2021/01/30 06:46:02;;;;;;;9.13;1.35;;;;;;;6.23;71.82;99100.28;4429379;32;20026;-77
2021/01/30 06:51:31;;;;;;;8.23;0.70;;;;;;;6.37;71.10;99100.59;4012754;31;15019297;-77
2021/01/30 06:59:50;;;;;;;1.95;0.40;;;;;;;6.47;70.73;99112.66;4010216;31;15018530;-77
2021/01/30 07:02:22;;;;;;;11.05;0.95;;;;;;;5.94;70.65;99101.19;4465318;32;20356;-77
2021/01/30 07:10:13;;;;;;;6.18;0.80;;;;;;;6.55;69.76;99099.97;3986740;32;15027141;-77
2021/01/30 07:15:42;;;;;;;4.37;0.80;;;;;;;6.12;70.49;99101.41;3989660;32;15024574;-77
2021/01/30 07:23:41;;;;;;;6.57;1.77;;;;;;;6.48;70.01;99106.59;3995168;32;15025189;-77
2021/01/30 07:31:38;;;;;;;13.60;0.80;;;;;;;6.48;70.72;99111.41;3990698;32;15024833;-77
2021/01/30 07:39:41;;;;;;;6.00;1.20;;;;;;;6.39;71.35;99111.31;3985019;32;15022704;-78
2021/01/30 07:42:22;;;;;;;7.72;0.80;;;;;;;6.39;71.35;99111.31;4439289;32;20199;-77
2021/01/30 07:47:36;;;;;;;7.18;0.80;;;;;;;6.52;71.30;99109.25;3985520;32;15029775;-76
2021/01/30 07:50:04;;;;;;;9.95;1.10;;;;;;;6.52;71.30;99109.25;4444390;32;20048;-77
2021/01/30 07:52:36;;;;;;;4.15;1.10;;;;;;;6.17;71.37;99111.22;4442245;32;20017;-76
2021/01/30 07:55:03;;;;;;;9.93;1.02;;;;;;;6.21;71.19;99100.72;4440338;32;20034;-76
2021/01/30 08:00:46;;;;;;;6.57;1.10;;;;;;;6.73;70.16;99116.94;3962717;32;15725666;-76
2021/01/30 08:08:45;;;;;;;7.53;1.10;;;;;;;6.81;69.45;99132.22;3989742;32;15027584;-77
2021/01/30 08:16:44;;;;;;;7.95;0.82;;;;;;;6.90;70.46;99144.28;3987913;32;15023712;-77
2021/01/30 08:19:15;;;;;;;14.80;1.12;;;;;;;6.90;70.46;99144.28;4436189;32;20041;-76
2021/01/30 08:27:28;;;;;;;5.45;0.93;;;;;;;6.63;71.34;99143.06;3984076;32;15033927;-76
2021/01/30 08:30:00;;;;;;;9.15;1.27;;;;;;;6.63;71.30;99138.41;4437961;32;20021;-77
2021/01/30 08:41:01;;;;;;;7.90;1.00;;;;;;;6.08;73.11;99147.44;3989446;32;15022939;-77
2021/01/30 08:43:48;;;;;;;4.93;0.80;;;;;;;5.98;72.75;99146.53;4444952;32;20072;-76
2021/01/30 08:51:44;;;;;;;9.07;1.15;;;;;;;6.31;71.34;99149.88;3988678;32;15025586;-76
2021/01/30 08:57:06;;;;;;;8.02;1.52;;;;;;;6.72;70.42;99157.31;3990078;32;15022655;-77
2021/01/30 09:08:18;;;;;;;8.00;1.48;;;;;;;7.07;67.49;99153.28;3931840;32;16222906;-77
2021/01/30 09:10:43;;;;;;;5.20;1.00;;;;;;;7.07;67.49;99153.28;4424308;32;20096;-76
2021/01/30 09:13:15;;;;;;;4.15;0.80;;;;;;;6.60;68.51;99152.53;4419685;32;20060;-77
2021/01/30 09:29:04;;;;;;;7.32;1.05;;;;;;;6.50;69.78;99162.03;3988963;32;15024007;-77
2021/01/30 09:31:30;;;;;;;10.63;1.20;;;;;;;6.50;69.78;99162.03;4443921;32;20414;-77
2021/01/30 09:36:42;;;;;;;8.48;1.42;;;;;;;6.01;71.07;99164.38;3961560;32;15731610;-77
2021/01/30 09:39:32;;;;;;;7.05;1.42;;;;;;;5.95;71.75;99160.56;4436559;32;20037;-78
2021/01/30 09:42:20;;;;;;;13.05;1.10;;;;;;;5.99;70.80;99150.09;4442822;32;20029;-78
2021/01/30 09:44:58;;;;;;;8.70;1.02;;;;;;;6.09;70.95;99146.97;4439952;32;20053;-78
2021/01/30 09:47:25;;;;;;;6.22;0.90;;;;;;;6.14;70.52;99143.62;4437468;32;20043;-76
2021/01/30 09:50:13;;;;;;;6.45;1.15;;;;;;;6.31;70.30;99149.06;4436899;32;20058;-76
2021/01/30 09:52:50;;;;;;;7.15;0.93;;;;;;;6.36;70.18;99138.13;4439972;32;20021;-77
2021/01/30 09:55:17;;;;;;;8.52;1.08;;;;;;;6.50;70.89;99151.62;4444661;32;20064;-76
2021/01/30 09:57:44;;;;;;;8.00;1.87;;;;;;;6.34;70.82;99143.38;4439720;32;20501;-76
2021/01/30 10:00:16;;;;;;;5.18;0.90;;;;;;;6.45;71.17;99143.03;4442224;32;20497;-77
2021/01/30 10:02:42;;;;;;;10.68;1.58;;;;;;;6.40;71.52;99141.59;4436875;32;20093;-76
2021/01/30 10:05:13;;;;;;;6.95;1.10;;;;;;;6.23;72.52;99147.75;4421080;32;20072;-76
2021/01/30 10:07:39;;;;;;;9.38;1.62;;;;;;;6.02;73.69;99147.19;4438485;32;20046;-77
2021/01/30 10:13:01;;;;;;;8.23;1.98;;;;;;;6.36;74.72;99157.69;3987810;32;15023906;-75
2021/01/30 10:18:11;;;;;;;6.10;1.05;;;;;;;6.25;76.02;99167.63;3961205;32;15723567;-77
2021/01/30 10:20:48;;;;;;;16.05;1.70;;;;;;;6.25;76.02;99167.63;4443530;32;20080;-77
2021/01/30 10:23:27;;;;;;;6.15;1.40;;;;;;;5.82;78.14;99168.94;4436088;32;20024;-77
2021/01/30 10:31:54;;;;;;;6.47;1.30;;;;;;;5.86;77.04;99177.22;3999762;31;15015433;-76
2021/01/30 10:34:29;;;;;;;8.18;1.62;;;;;;;5.74;76.24;99172.38;4442534;32;20045;-76
2021/01/30 10:39:36;;;;;;;11.73;2.00;;;;;;;6.00;76.49;99177.56;3987033;32;15023166;-76
2021/01/30 10:42:08;;;;;;;11.30;1.60;;;;;;;6.00;76.49;99177.56;4447912;32;20041;-76
2021/01/30 10:44:35;;;;;;;7.43;1.45;;;;;;;5.65;77.56;99172.25;4442585;32;20062;-76
2021/01/30 10:47:03;;;;;;;12.15;1.80;;;;;;;5.58;76.94;99164.84;4439763;32;20052;-76
2021/01/30 10:49:34;;;;;;;7.03;1.50;;;;;;;5.61;76.54;99177.91;4441684;32;20041;-76
2021/01/30 10:52:22;;;;;;;6.78;1.58;;;;;;;5.63;76.74;99183.84;4439786;32;20049;-75
2021/01/30 10:54:47;;;;;;;11.75;2.03;;;;;;;5.66;77.17;99176.59;4443537;32;20063;-75
2021/01/30 11:00:02;;;;;;;8.05;1.30;;;;;;;6.32;75.73;99184.19;3988961;32;15022635;-75
2021/01/30 11:07:46;;;;;;;7.65;2.35;;;;;;;6.26;75.32;99195.09;3988330;32;15039594;-76
2021/01/30 11:10:27;;;;;;;16.73;1.85;;;;;;;5.85;76.95;99186.81;4437102;32;20017;-76
2021/01/30 11:13:06;;;;;;;4.95;1.60;;;;;;;5.92;76.98;99187.38;4437256;32;20080;-76
2021/01/30 11:15:32;;;;;;;11.77;2.17;;;;;;;5.94;76.80;99201.69;4442612;32;20018;-75
2021/01/30 11:20:56;;;;;;;8.85;1.42;;;;;;;6.10;76.96;99206.38;3988603;32;15022484;-77
2021/01/30 11:28:48;;;;;;;5.45;1.42;;;;;;;6.07;77.01;99213.66;3985982;32;15027642;-76
2021/01/30 11:31:15;;;;;;;6.40;1.40;;;;;;;6.07;77.01;99213.66;4440461;32;20390;-76
2021/01/30 11:33:43;;;;;;;8.75;1.40;;;;;;;5.56;78.24;99197.97;4443373;32;20065;-76
2021/01/30 11:36:11;;;;;;;11.68;1.83;;;;;;;5.64;79.13;99212.50;4431291;32;20502;-76
2021/01/30 11:38:37;;;;;;;9.70;1.45;;;;;;;5.55;78.07;99199.22;4442135;32;20427;-76
2021/01/30 11:41:04;;;;;;;10.38;2.97;;;;;;;5.68;78.38;99205.59;4435170;32;20078;-76
2021/01/30 11:43:29;;;;;;;8.73;1.55;;;;;;;5.84;77.88;99204.78;4438024;32;20037;-76
2021/01/30 11:45:55;;;;;;;12.45;1.70;;;;;;;5.77;77.40;99208.53;4434821;32;20140;-76
2021/01/30 11:48:23;;;;;;;8.15;2.03;;;;;;;5.70;77.94;99208.75;4436233;32;20460;-76
2021/01/30 11:50:51;;;;;;;10.95;2.42;;;;;;;5.69;77.35;99214.78;4435408;32;20026;-76
2021/01/30 11:53:20;;;;;;;10.05;1.90;;;;;;;5.69;76.72;99218.34;4436626;32;20072;-77
2021/01/30 11:55:47;;;;;;;8.43;2.28;;;;;;;5.71;76.90;99226.28;4440882;32;20069;-77
2021/01/30 11:58:14;;;;;;;9.93;2.55;;;;;;;5.79;76.42;99220.06;4431196;32;20064;-77
2021/01/30 12:00:40;;;;;;;9.82;1.40;;;;;;;5.88;76.13;99217.44;4436036;32;20094;-76
2021/01/30 12:03:06;;;;;;;8.57;1.73;;;;;;;5.99;75.59;99225.50;4436799;32;20038;-76
2021/01/30 12:05:32;;;;;;;7.75;1.42;;;;;;;6.17;75.10;99228.53;4439283;32;20061;-76
2021/01/30 12:07:58;;;;;;;11.32;1.50;;;;;;;6.21;74.34;99231.19;4438435;32;20063;-76
2021/01/30 12:10:25;;;;;;;12.18;1.73;;;;;;;6.24;74.10;99219.12;4436616;32;20084;-76
2021/01/30 12:12:50;;;;;;;7.35;1.48;;;;;;;6.13;74.62;99219.47;4430999;32;20042;-76
2021/01/30 12:15:17;;;;;;;13.00;1.67;;;;;;;6.28;74.78;99225.38;4436414;32;20030;-77
2021/01/30 12:17:46;;;;;;;11.73;1.87;;;;;;;6.58;73.98;99222.84;4439174;32;20049;-76
2021/01/30 12:20:19;;;;;;;7.22;1.45;;;;;;;6.91;72.83;99226.16;4438937;32;20088;-76
2021/01/30 12:22:45;;;;;;;11.07;1.58;;;;;;;6.77;71.79;99227.41;4436324;32;20085;-76
2021/01/30 12:25:12;;;;;;;11.60;1.87;;;;;;;6.74;72.33;99233.09;4438998;32;20087;-77
2021/01/30 12:27:41;;;;;;;14.82;1.45;;;;;;;6.77;72.24;99221.81;4440984;32;20116;-76
2021/01/30 12:30:08;;;;;;;9.38;1.80;;;;;;;6.83;71.97;99224.81;4433427;32;20461;-76
2021/01/30 12:32:35;;;;;;;7.90;2.25;;;;;;;6.80;71.98;99228.50;4435816;32;20116;-76
2021/01/30 12:35:03;;;;;;;5.82;1.77;;;;;;;6.82;71.69;99235.22;4437113;32;20037;-76
2021/01/30 12:37:28;;;;;;;12.07;1.70;;;;;;;7.03;71.82;99236.53;4439572;32;20069;-77
2021/01/30 12:39:54;;;;;;;11.98;1.60;;;;;;;7.10;70.74;99239.87;4433902;32;20021;-77
2021/01/30 12:42:20;;;;;;;11.10;1.50;;;;;;;7.15;70.15;99232.91;4429221;32;20046;-76
2021/01/30 12:44:47;;;;;;;5.78;1.62;;;;;;;7.28;70.10;99239.25;4428558;32;20041;-76
2021/01/30 12:47:25;;;;;;;12.37;1.30;;;;;;;7.33;69.74;99244.28;4427148;32;20091;-76
2021/01/30 12:49:51;;;;;;;10.38;1.60;;;;;;;7.39;68.66;99248.84;4421001;32;20398;-76
2021/01/30 12:52:17;;;;;;;10.80;1.30;;;;;;;7.19;69.31;99237.16;4424562;32;20038;-77
2021/01/30 12:54:43;;;;;;;10.15;1.70;;;;;;;6.75;69.34;99243.06;4421948;32;20029;-77
2021/01/30 12:57:08;;;;;;;11.77;1.50;;;;;;;6.74;70.41;99247.06;4422734;32;20048;-76
2021/01/30 12:59:34;;;;;;;11.95;1.62;;;;;;;6.64;70.66;99245.41;4427208;32;20017;-77
2021/01/30 13:02:02;;;;;;;7.37;1.50;;;;;;;6.59;70.71;99241.16;4425770;32;20022;-77
2021/01/30 13:04:29;;;;;;;15.57;1.85;;;;;;;6.55;70.90;99248.88;4426680;32;20053;-76
2021/01/30 13:06:55;;;;;;;12.10;1.92;;;;;;;6.57;70.47;99234.47;4427985;32;20029;-76
2021/01/30 13:09:21;;;;;;;20.05;2.70;;;;;;;6.57;70.38;99245.63;4425015;32;20101;-76
2021/01/30 13:11:48;;;;;;;13.15;1.73;;;;;;;6.74;69.72;99247.88;4425702;32;20064;-76
2021/01/30 13:14:14;;;;;;;10.23;1.42;;;;;;;6.78;70.45;99250.56;4429020;32;20037;-76
2021/01/30 13:16:40;;;;;;;12.45;1.67;;;;;;;6.76;70.03;99251.00;4425887;32;20101;-77
2021/01/30 13:19:05;;;;;;;12.40;1.33;;;;;;;6.78;68.71;99251.31;4426707;32;20070;-77
2021/01/30 13:21:32;;;;;;;10.27;1.58;;;;;;;6.93;68.67;99257.25;4425639;32;20095;-76
2021/01/30 13:23:59;;;;;;;13.25;1.77;;;;;;;6.95;68.11;99261.16;4426170;32;20064;-76
2021/01/30 13:26:25;;;;;;;10.25;1.45;;;;;;;6.99;67.81;99252.63;4428894;32;20038;-76
2021/01/30 13:28:50;;;;;;;13.20;1.62;;;;;;;6.93;68.17;99248.84;4422474;32;20048;-77
2021/01/30 13:31:16;;;;;;;7.28;1.65;;;;;;;6.86;67.75;99255.47;4426249;32;20030;-76
2021/01/30 13:33:42;;;;;;;7.37;1.50;;;;;;;6.97;66.92;99249.50;4432235;32;20052;-76
2021/01/30 13:36:08;;;;;;;16.73;1.80;;;;;;;6.96;66.40;99245.16;4432316;32;20336;-76
2021/01/30 13:38:33;;;;;;;13.40;1.60;;;;;;;7.01;66.51;99252.97;4422054;32;20192;-76
2021/01/30 13:40:59;;;;;;;11.18;1.80;;;;;;;7.08;66.14;99261.09;4423948;32;20078;-76
2021/01/30 13:43:25;;;;;;;12.68;1.60;;;;;;;6.95;64.68;99260.34;4421108;32;20086;-76
2021/01/30 13:45:50;;;;;;;11.18;2.60;;;;;;;6.91;64.56;99266.09;4421354;32;20034;-76
2021/01/30 13:48:17;;;;;;;8.77;1.75;;;;;;;6.96;65.04;99271.09;4422540;32;20467;-77
2021/01/30 13:50:43;;;;;;;10.35;2.87;;;;;;;6.98;64.87;99262.25;4429423;32;20421;-77
2021/01/30 13:53:10;;;;;;;15.68;1.60;;;;;;;6.84;64.05;99265.53;4426570;32;20034;-77
2021/01/30 13:55:35;;;;;;;11.10;2.67;;;;;;;6.82;63.22;99262.41;4423577;32;20078;-78
2021/01/30 13:58:01;;;;;;;9.55;1.40;;;;;;;6.89;62.87;99268.53;4424959;32;20442;-76
2021/01/30 14:00:27;;;;;;;4.03;1.10;;;;;;;6.81;64.09;99258.03;4423463;32;20129;-77
2021/01/30 14:02:53;;;;;;;16.75;1.90;;;;;;;6.88;63.72;99269.78;4424996;32;20358;-77
2021/01/30 14:05:25;;;;;;;6.57;1.52;;;;;;;6.80;64.26;99274.03;4421355;32;20424;-76
2021/01/30 14:07:55;;;;;;;6.35;1.37;;;;;;;6.80;63.81;99268.44;4428900;32;20033;-77
2021/01/30 14:10:20;;;;;;;10.68;1.50;;;;;;;6.78;63.63;99278.50;4425145;32;20428;-76
2021/01/30 14:12:46;;;;;;;14.02;1.90;;;;;;;6.69;63.55;99275.59;4424581;32;20026;-76
2021/01/30 14:15:13;;;;;;;9.82;1.73;;;;;;;6.57;63.83;99265.19;4420345;32;20041;-76
2021/01/30 14:17:38;;;;;;;13.88;1.75;;;;;;;6.62;64.41;99286.97;4425525;32;20106;-76
2021/01/30 14:20:06;;;;;;;12.85;2.20;;;;;;;6.66;64.12;99291.22;4424174;32;20030;-76
2021/01/30 14:22:33;;;;;;;12.88;1.62;;;;;;;6.68;64.57;99279.59;4422200;32;20477;-77
2021/01/30 14:24:59;;;;;;;10.30;1.60;;;;;;;6.68;64.06;99293.59;4427528;32;20052;-76
2021/01/30 14:27:24;;;;;;;8.63;1.30;;;;;;;6.69;64.29;99295.16;4427736;32;20388;-76
2021/01/30 14:29:51;;;;;;;8.40;1.27;;;;;;;6.71;63.93;99293.47;4428188;32;20030;-75
2021/01/30 14:32:19;;;;;;;13.88;1.98;;;;;;;6.62;63.81;99293.38;4427222;32;20753;-76
2021/01/30 14:34:46;;;;;;;14.87;1.60;;;;;;;6.59;64.42;99299.09;4422890;32;20052;-76